sensor_id;sensor_type;location;lat;lon;timestamp;temperature;humidity
24902;DHT22;31328;51.402;0.016;2024-01-07T00:01:59;5.30;99.90
24902;DHT22;31328;51.402;0.016;2024-01-07T00:04:25;5.30;99.90
24902;DHT22;31328;51.402;0.016;2024-01-07T00:06:52;5.20;99.90
24902;DHT22;31328;51.402;0.016;2024-01-07T00:09:18;5.20;99.90
24902;DHT22;31328;51.402;0.016;2024-01-07T00:11:44;5.20;99.90
24902;DHT22;31328;51.402;0.016;2024-01-07T00:14:11;5.20;99.90
24902;DHT22;31328;51.402;0.016;2024-01-07T00:16:37;5.20;99.90
24902;DHT22;31328;51.402;0.016;2024-01-07T00:19:06;5.20;99.90
24902;DHT22;31328;51.402;0.016;2024-01-07T00:21:32;5.20;99.90
24902;DHT22;31328;51.402;0.016;2024-01-07T00:23:58;5.20;99.90
24902;DHT22;31328;51.402;0.016;2024-01-07T00:26:24;5.10;99.90
24902;DHT22;31328;51.402;0.016;2024-01-07T00:28:51;5.10;99.90
24902;DHT22;31328;51.402;0.016;2024-01-07T00:31:17;5.10;99.90
24902;DHT22;31328;51.402;0.016;2024-01-07T00:33:44;5.10;99.90
24902;DHT22;31328;51.402;0.016;2024-01-07T00:36:11;5.00;99.90
24902;DHT22;31328;51.402;0.016;2024-01-07T00:38:38;5.00;99.90
24902;DHT22;31328;51.402;0.016;2024-01-07T00:41:04;5.00;99.90
24902;DHT22;31328;51.402;0.016;2024-01-07T00:43:30;5.00;99.90
24902;DHT22;31328;51.402;0.016;2024-01-07T00:45:57;5.00;99.90
24902;DHT22;31328;51.402;0.016;2024-01-07T00:48:23;4.90;99.90
24902;DHT22;31328;51.402;0.016;2024-01-07T00:50:49;4.90;99.90
24902;DHT22;31328;51.402;0.016;2024-01-07T00:53:16;4.80;99.90
24902;DHT22;31328;51.402;0.016;2024-01-07T00:55:42;4.80;99.90
24902;DHT22;31328;51.402;0.016;2024-01-07T00:58:08;4.80;99.90
24902;DHT22;31328;51.402;0.016;2024-01-07T01:00:35;4.80;99.90
24902;DHT22;31328;51.402;0.016;2024-01-07T01:03:02;4.70;99.90
24902;DHT22;31328;51.402;0.016;2024-01-07T01:05:28;4.70;99.90
24902;DHT22;31328;51.402;0.016;2024-01-07T01:07:55;4.70;99.90
24902;DHT22;31328;51.402;0.016;2024-01-07T01:10:22;4.60;99.90
24902;DHT22;31328;51.402;0.016;2024-01-07T01:12:48;4.60;99.90
24902;DHT22;31328;51.402;0.016;2024-01-07T01:15:14;4.60;99.90
24902;DHT22;31328;51.402;0.016;2024-01-07T01:17:42;4.60;99.90
24902;DHT22;31328;51.402;0.016;2024-01-07T01:20:09;4.50;99.90
24902;DHT22;31328;51.402;0.016;2024-01-07T01:22:35;4.50;99.90
24902;DHT22;31328;51.402;0.016;2024-01-07T01:25:02;4.40;99.90
24902;DHT22;31328;51.402;0.016;2024-01-07T01:27:29;4.40;99.90
24902;DHT22;31328;51.402;0.016;2024-01-07T01:29:56;4.40;99.90
24902;DHT22;31328;51.402;0.016;2024-01-07T01:32:22;4.40;99.90
24902;DHT22;31328;51.402;0.016;2024-01-07T01:34:48;4.40;99.90
24902;DHT22;31328;51.402;0.016;2024-01-07T01:37:15;4.30;99.90
24902;DHT22;31328;51.402;0.016;2024-01-07T01:39:41;4.30;99.90
24902;DHT22;31328;51.402;0.016;2024-01-07T01:42:08;4.30;99.90
24902;DHT22;31328;51.402;0.016;2024-01-07T01:44:34;4.30;99.90
24902;DHT22;31328;51.402;0.016;2024-01-07T01:47:01;4.20;99.90
24902;DHT22;31328;51.402;0.016;2024-01-07T01:49:28;4.20;99.90
24902;DHT22;31328;51.402;0.016;2024-01-07T01:51:54;4.20;99.90
24902;DHT22;31328;51.402;0.016;2024-01-07T01:54:21;4.10;99.90
24902;DHT22;31328;51.402;0.016;2024-01-07T01:56:48;4.10;99.90
24902;DHT22;31328;51.402;0.016;2024-01-07T01:59:15;4.10;99.90
24902;DHT22;31328;51.402;0.016;2024-01-07T02:01:42;4.10;99.90
24902;DHT22;31328;51.402;0.016;2024-01-07T02:04:09;4.10;99.90
24902;DHT22;31328;51.402;0.016;2024-01-07T02:06:36;4.00;99.90
24902;DHT22;31328;51.402;0.016;2024-01-07T02:09:02;4.00;99.90
24902;DHT22;31328;51.402;0.016;2024-01-07T02:11:29;4.00;99.90
24902;DHT22;31328;51.402;0.016;2024-01-07T02:13:56;4.00;99.90
24902;DHT22;31328;51.402;0.016;2024-01-07T02:16:23;4.00;99.90
24902;DHT22;31328;51.402;0.016;2024-01-07T02:18:49;4.00;99.90
24902;DHT22;31328;51.402;0.016;2024-01-07T02:21:16;3.90;99.90
24902;DHT22;31328;51.402;0.016;2024-01-07T02:23:42;3.90;99.90
24902;DHT22;31328;51.402;0.016;2024-01-07T02:26:09;3.90;99.90
24902;DHT22;31328;51.402;0.016;2024-01-07T02:28:36;3.90;99.90
24902;DHT22;31328;51.402;0.016;2024-01-07T02:31:03;3.90;99.90
24902;DHT22;31328;51.402;0.016;2024-01-07T02:33:29;3.90;99.90
24902;DHT22;31328;51.402;0.016;2024-01-07T02:35:57;3.90;99.90
24902;DHT22;31328;51.402;0.016;2024-01-07T02:38:24;3.80;99.90
24902;DHT22;31328;51.402;0.016;2024-01-07T02:40:50;3.80;99.90
24902;DHT22;31328;51.402;0.016;2024-01-07T02:43:16;3.80;99.90
24902;DHT22;31328;51.402;0.016;2024-01-07T02:45:43;3.80;99.90
24902;DHT22;31328;51.402;0.016;2024-01-07T02:48:09;3.80;99.90
24902;DHT22;31328;51.402;0.016;2024-01-07T02:50:36;3.80;99.90
24902;DHT22;31328;51.402;0.016;2024-01-07T02:53:02;3.80;99.90
24902;DHT22;31328;51.402;0.016;2024-01-07T02:55:28;3.80;99.90
24902;DHT22;31328;51.402;0.016;2024-01-07T02:57:55;3.80;99.90
24902;DHT22;31328;51.402;0.016;2024-01-07T03:00:21;3.80;99.90
24902;DHT22;31328;51.402;0.016;2024-01-07T03:02:47;3.70;99.90
24902;DHT22;31328;51.402;0.016;2024-01-07T03:05:14;3.70;99.90
24902;DHT22;31328;51.402;0.016;2024-01-07T03:07:40;3.70;99.90
24902;DHT22;31328;51.402;0.016;2024-01-07T03:10:07;3.70;99.90
24902;DHT22;31328;51.402;0.016;2024-01-07T03:12:33;3.70;99.90
24902;DHT22;31328;51.402;0.016;2024-01-07T03:15:00;3.60;99.90
24902;DHT22;31328;51.402;0.016;2024-01-07T03:17:26;3.60;99.90
24902;DHT22;31328;51.402;0.016;2024-01-07T03:19:53;3.60;99.90
24902;DHT22;31328;51.402;0.016;2024-01-07T03:22:19;3.60;99.90
24902;DHT22;31328;51.402;0.016;2024-01-07T03:24:45;3.60;99.90
24902;DHT22;31328;51.402;0.016;2024-01-07T03:27:13;3.60;99.90
24902;DHT22;31328;51.402;0.016;2024-01-07T03:29:39;3.50;99.90
24902;DHT22;31328;51.402;0.016;2024-01-07T03:32:06;3.50;99.90
24902;DHT22;31328;51.402;0.016;2024-01-07T03:34:32;3.60;99.90
24902;DHT22;31328;51.402;0.016;2024-01-07T03:36:58;3.50;99.90
24902;DHT22;31328;51.402;0.016;2024-01-07T03:39:25;3.50;99.90
24902;DHT22;31328;51.402;0.016;2024-01-07T03:41:55;3.50;99.90
24902;DHT22;31328;51.402;0.016;2024-01-07T03:44:22;3.50;99.90
24902;DHT22;31328;51.402;0.016;2024-01-07T03:46:49;3.50;99.90
24902;DHT22;31328;51.402;0.016;2024-01-07T03:49:15;3.50;99.90
24902;DHT22;31328;51.402;0.016;2024-01-07T03:51:41;3.50;99.90
24902;DHT22;31328;51.402;0.016;2024-01-07T03:54:08;3.50;99.90
24902;DHT22;31328;51.402;0.016;2024-01-07T03:56:34;3.10;99.90
24902;DHT22;31328;51.402;0.016;2024-01-07T03:59:00;3.50;99.90
24902;DHT22;31328;51.402;0.016;2024-01-07T04:01:27;3.50;99.90
24902;DHT22;31328;51.402;0.016;2024-01-07T04:03:53;3.50;99.90
24902;DHT22;31328;51.402;0.016;2024-01-07T04:06:20;3.50;99.90
24902;DHT22;31328;51.402;0.016;2024-01-07T04:08:46;3.40;99.90
24902;DHT22;31328;51.402;0.016;2024-01-07T04:11:12;3.40;99.90
24902;DHT22;31328;51.402;0.016;2024-01-07T04:13:39;3.40;99.90
24902;DHT22;31328;51.402;0.016;2024-01-07T04:16:05;3.40;99.90
24902;DHT22;31328;51.402;0.016;2024-01-07T04:18:32;3.20;99.90
24902;DHT22;31328;51.402;0.016;2024-01-07T04:20:58;3.40;99.90
24902;DHT22;31328;51.402;0.016;2024-01-07T04:23:25;3.40;99.90
24902;DHT22;31328;51.402;0.016;2024-01-07T04:25:51;3.40;99.90
24902;DHT22;31328;51.402;0.016;2024-01-07T04:28:17;3.40;99.90
24902;DHT22;31328;51.402;0.016;2024-01-07T04:30:43;3.40;99.90
24902;DHT22;31328;51.402;0.016;2024-01-07T04:33:10;3.40;99.90
24902;DHT22;31328;51.402;0.016;2024-01-07T04:35:36;4.20;99.90
24902;DHT22;31328;51.402;0.016;2024-01-07T04:38:02;3.40;99.90
24902;DHT22;31328;51.402;0.016;2024-01-07T04:40:29;3.40;99.90
24902;DHT22;31328;51.402;0.016;2024-01-07T04:42:55;3.40;99.90
24902;DHT22;31328;51.402;0.016;2024-01-07T04:45:21;3.30;99.90
24902;DHT22;31328;51.402;0.016;2024-01-07T04:47:48;3.40;99.90
24902;DHT22;31328;51.402;0.016;2024-01-07T04:50:14;3.40;99.90
24902;DHT22;31328;51.402;0.016;2024-01-07T04:52:41;3.40;99.90
24902;DHT22;31328;51.402;0.016;2024-01-07T04:55:07;3.40;99.90
24902;DHT22;31328;51.402;0.016;2024-01-07T04:57:35;3.40;99.90
24902;DHT22;31328;51.402;0.016;2024-01-07T05:00:02;3.40;99.90
24902;DHT22;31328;51.402;0.016;2024-01-07T05:02:28;3.40;99.90
24902;DHT22;31328;51.402;0.016;2024-01-07T05:04:54;3.30;99.90
24902;DHT22;31328;51.402;0.016;2024-01-07T05:07:21;3.40;99.90
24902;DHT22;31328;51.402;0.016;2024-01-07T05:09:47;3.30;99.90
24902;DHT22;31328;51.402;0.016;2024-01-07T05:12:14;3.30;99.90
24902;DHT22;31328;51.402;0.016;2024-01-07T05:14:40;3.40;99.90
24902;DHT22;31328;51.402;0.016;2024-01-07T05:17:09;3.30;99.90
24902;DHT22;31328;51.402;0.016;2024-01-07T05:19:35;3.30;99.90
24902;DHT22;31328;51.402;0.016;2024-01-07T05:22:02;3.30;99.90
24902;DHT22;31328;51.402;0.016;2024-01-07T05:24:29;3.30;99.90
24902;DHT22;31328;51.402;0.016;2024-01-07T05:26:55;3.30;99.90
24902;DHT22;31328;51.402;0.016;2024-01-07T05:29:22;3.30;99.90
24902;DHT22;31328;51.402;0.016;2024-01-07T05:31:48;3.30;99.90
24902;DHT22;31328;51.402;0.016;2024-01-07T05:34:14;3.30;99.90
24902;DHT22;31328;51.402;0.016;2024-01-07T05:36:41;3.40;99.90
24902;DHT22;31328;51.402;0.016;2024-01-07T05:39:07;3.30;99.90
24902;DHT22;31328;51.402;0.016;2024-01-07T05:41:37;3.30;99.90
24902;DHT22;31328;51.402;0.016;2024-01-07T05:44:06;3.30;99.90
24902;DHT22;31328;51.402;0.016;2024-01-07T05:46:32;3.30;99.90
24902;DHT22;31328;51.402;0.016;2024-01-07T05:48:59;3.30;99.90
24902;DHT22;31328;51.402;0.016;2024-01-07T05:51:25;3.30;99.90
24902;DHT22;31328;51.402;0.016;2024-01-07T05:53:52;3.30;99.90
24902;DHT22;31328;51.402;0.016;2024-01-07T05:56:18;3.30;99.90
24902;DHT22;31328;51.402;0.016;2024-01-07T05:58:45;3.30;99.90
24902;DHT22;31328;51.402;0.016;2024-01-07T06:01:17;3.30;99.90
24902;DHT22;31328;51.402;0.016;2024-01-07T06:03:45;3.30;99.90
24902;DHT22;31328;51.402;0.016;2024-01-07T06:06:12;3.30;99.90
24902;DHT22;31328;51.402;0.016;2024-01-07T06:08:39;3.30;99.90
24902;DHT22;31328;51.402;0.016;2024-01-07T06:11:05;3.30;99.90
24902;DHT22;31328;51.402;0.016;2024-01-07T06:13:31;3.20;99.90
24902;DHT22;31328;51.402;0.016;2024-01-07T06:15:58;3.40;99.90
24902;DHT22;31328;51.402;0.016;2024-01-07T06:18:24;3.30;99.90
24902;DHT22;31328;51.402;0.016;2024-01-07T06:20:50;3.30;99.90
24902;DHT22;31328;51.402;0.016;2024-01-07T06:23:16;3.30;99.90
24902;DHT22;31328;51.402;0.016;2024-01-07T06:25:44;3.30;99.90
24902;DHT22;31328;51.402;0.016;2024-01-07T06:28:10;3.30;99.90
24902;DHT22;31328;51.402;0.016;2024-01-07T06:30:36;3.30;99.90
24902;DHT22;31328;51.402;0.016;2024-01-07T06:33:03;3.30;99.90
24902;DHT22;31328;51.402;0.016;2024-01-07T06:35:29;3.30;99.90
24902;DHT22;31328;51.402;0.016;2024-01-07T06:37:56;3.30;99.90
24902;DHT22;31328;51.402;0.016;2024-01-07T06:40:23;3.30;99.90
24902;DHT22;31328;51.402;0.016;2024-01-07T06:42:49;3.30;99.90
24902;DHT22;31328;51.402;0.016;2024-01-07T06:45:17;3.30;99.90
24902;DHT22;31328;51.402;0.016;2024-01-07T06:47:43;3.20;99.90
24902;DHT22;31328;51.402;0.016;2024-01-07T06:50:10;3.30;99.90
24902;DHT22;31328;51.402;0.016;2024-01-07T06:52:36;3.20;99.90
24902;DHT22;31328;51.402;0.016;2024-01-07T06:55:03;3.20;99.90
24902;DHT22;31328;51.402;0.016;2024-01-07T06:57:29;3.20;99.90
24902;DHT22;31328;51.402;0.016;2024-01-07T06:59:56;3.20;99.90
24902;DHT22;31328;51.402;0.016;2024-01-07T07:02:22;3.20;99.90
24902;DHT22;31328;51.402;0.016;2024-01-07T07:04:48;3.20;99.90
24902;DHT22;31328;51.402;0.016;2024-01-07T07:07:17;3.20;99.90
24902;DHT22;31328;51.402;0.016;2024-01-07T07:09:43;3.20;99.90
24902;DHT22;31328;51.402;0.016;2024-01-07T07:12:12;3.30;99.90
24902;DHT22;31328;51.402;0.016;2024-01-07T07:14:38;3.20;99.90
24902;DHT22;31328;51.402;0.016;2024-01-07T07:17:05;3.20;99.90
24902;DHT22;31328;51.402;0.016;2024-01-07T07:19:31;3.20;99.90
24902;DHT22;31328;51.402;0.016;2024-01-07T07:21:57;3.30;99.90
24902;DHT22;31328;51.402;0.016;2024-01-07T07:24:24;3.20;99.90
24902;DHT22;31328;51.402;0.016;2024-01-07T07:26:50;3.20;99.90
24902;DHT22;31328;51.402;0.016;2024-01-07T07:29:16;3.20;99.90
24902;DHT22;31328;51.402;0.016;2024-01-07T07:31:43;3.20;99.90
24902;DHT22;31328;51.402;0.016;2024-01-07T07:34:10;3.20;99.90
24902;DHT22;31328;51.402;0.016;2024-01-07T07:36:38;3.20;99.90
24902;DHT22;31328;51.402;0.016;2024-01-07T07:39:05;3.20;99.90
24902;DHT22;31328;51.402;0.016;2024-01-07T07:41:32;3.20;99.90
24902;DHT22;31328;51.402;0.016;2024-01-07T07:44:00;3.20;99.90
24902;DHT22;31328;51.402;0.016;2024-01-07T07:46:26;3.20;99.90
24902;DHT22;31328;51.402;0.016;2024-01-07T07:48:52;3.20;99.90
24902;DHT22;31328;51.402;0.016;2024-01-07T07:51:19;3.20;99.90
24902;DHT22;31328;51.402;0.016;2024-01-07T07:53:46;3.20;99.90
24902;DHT22;31328;51.402;0.016;2024-01-07T07:56:13;3.20;99.90
24902;DHT22;31328;51.402;0.016;2024-01-07T07:58:39;3.20;99.90
24902;DHT22;31328;51.402;0.016;2024-01-07T08:01:06;3.20;99.90
24902;DHT22;31328;51.402;0.016;2024-01-07T08:03:32;3.20;99.90
24902;DHT22;31328;51.402;0.016;2024-01-07T08:05:59;3.20;99.90
24902;DHT22;31328;51.402;0.016;2024-01-07T08:08:25;3.20;99.90
24902;DHT22;31328;51.402;0.016;2024-01-07T08:10:51;3.20;99.90
24902;DHT22;31328;51.402;0.016;2024-01-07T08:13:18;3.20;99.90
24902;DHT22;31328;51.402;0.016;2024-01-07T08:15:44;3.20;99.90
24902;DHT22;31328;51.402;0.016;2024-01-07T08:18:10;3.20;99.90
24902;DHT22;31328;51.402;0.016;2024-01-07T08:20:37;3.20;99.90
24902;DHT22;31328;51.402;0.016;2024-01-07T08:23:03;3.20;99.90
24902;DHT22;31328;51.402;0.016;2024-01-07T08:25:31;3.20;99.90
24902;DHT22;31328;51.402;0.016;2024-01-07T08:27:58;3.20;99.90
24902;DHT22;31328;51.402;0.016;2024-01-07T08:30:24;3.20;99.90
24902;DHT22;31328;51.402;0.016;2024-01-07T08:32:51;3.20;99.90
24902;DHT22;31328;51.402;0.016;2024-01-07T08:35:17;3.20;99.90
24902;DHT22;31328;51.402;0.016;2024-01-07T08:37:43;3.20;99.90
24902;DHT22;31328;51.402;0.016;2024-01-07T08:40:11;3.20;99.90
24902;DHT22;31328;51.402;0.016;2024-01-07T08:42:39;3.20;99.90
24902;DHT22;31328;51.402;0.016;2024-01-07T08:45:06;3.20;99.90
24902;DHT22;31328;51.402;0.016;2024-01-07T08:47:32;3.20;99.90
24902;DHT22;31328;51.402;0.016;2024-01-07T08:49:59;3.20;99.90
24902;DHT22;31328;51.402;0.016;2024-01-07T08:52:25;3.30;99.90
24902;DHT22;31328;51.402;0.016;2024-01-07T08:54:51;3.30;99.90
24902;DHT22;31328;51.402;0.016;2024-01-07T08:57:18;3.30;99.90
24902;DHT22;31328;51.402;0.016;2024-01-07T08:59:44;3.30;99.90
24902;DHT22;31328;51.402;0.016;2024-01-07T09:02:11;3.40;99.90
24902;DHT22;31328;51.402;0.016;2024-01-07T09:04:37;3.30;99.90
24902;DHT22;31328;51.402;0.016;2024-01-07T09:07:04;3.30;99.90
24902;DHT22;31328;51.402;0.016;2024-01-07T09:09:30;3.40;99.90
24902;DHT22;31328;51.402;0.016;2024-01-07T09:11:56;3.40;99.90
24902;DHT22;31328;51.402;0.016;2024-01-07T09:14:25;3.40;99.90
24902;DHT22;31328;51.402;0.016;2024-01-07T09:16:51;3.40;99.90
24902;DHT22;31328;51.402;0.016;2024-01-07T09:19:18;3.50;99.90
24902;DHT22;31328;51.402;0.016;2024-01-07T09:21:44;3.50;99.90
24902;DHT22;31328;51.402;0.016;2024-01-07T09:24:10;3.50;99.90
24902;DHT22;31328;51.402;0.016;2024-01-07T09:26:37;3.50;99.90
24902;DHT22;31328;51.402;0.016;2024-01-07T09:29:03;3.60;99.90
24902;DHT22;31328;51.402;0.016;2024-01-07T09:31:29;3.60;99.90
24902;DHT22;31328;51.402;0.016;2024-01-07T09:33:56;3.60;99.90
24902;DHT22;31328;51.402;0.016;2024-01-07T09:36:22;3.60;99.90
24902;DHT22;31328;51.402;0.016;2024-01-07T09:38:49;3.60;99.90
24902;DHT22;31328;51.402;0.016;2024-01-07T09:41:15;3.60;99.90
24902;DHT22;31328;51.402;0.016;2024-01-07T09:43:41;3.70;99.90
24902;DHT22;31328;51.402;0.016;2024-01-07T09:46:07;3.70;99.90
24902;DHT22;31328;51.402;0.016;2024-01-07T09:48:34;3.70;99.90
24902;DHT22;31328;51.402;0.016;2024-01-07T09:51:01;3.70;99.90
24902;DHT22;31328;51.402;0.016;2024-01-07T09:53:30;3.80;99.90
24902;DHT22;31328;51.402;0.016;2024-01-07T09:56:06;3.90;99.90
24902;DHT22;31328;51.402;0.016;2024-01-07T09:58:33;3.90;99.90
24902;DHT22;31328;51.402;0.016;2024-01-07T10:01:00;3.90;99.90
24902;DHT22;31328;51.402;0.016;2024-01-07T10:03:26;3.90;99.90
24902;DHT22;31328;51.402;0.016;2024-01-07T10:05:52;3.90;99.90
24902;DHT22;31328;51.402;0.016;2024-01-07T10:08:19;4.00;99.90
24902;DHT22;31328;51.402;0.016;2024-01-07T10:10:48;4.00;99.90
24902;DHT22;31328;51.402;0.016;2024-01-07T10:13:15;4.00;99.90
24902;DHT22;31328;51.402;0.016;2024-01-07T10:15:41;4.00;99.90
24902;DHT22;31328;51.402;0.016;2024-01-07T10:18:07;4.10;99.90
24902;DHT22;31328;51.402;0.016;2024-01-07T10:20:34;4.10;99.90
24902;DHT22;31328;51.402;0.016;2024-01-07T10:23:02;4.20;99.90
24902;DHT22;31328;51.402;0.016;2024-01-07T10:25:31;4.20;99.90
24902;DHT22;31328;51.402;0.016;2024-01-07T10:28:02;4.20;99.90
24902;DHT22;31328;51.402;0.016;2024-01-07T10:30:31;4.30;99.90
24902;DHT22;31328;51.402;0.016;2024-01-07T10:32:58;4.30;99.90
24902;DHT22;31328;51.402;0.016;2024-01-07T10:35:29;4.30;99.90
24902;DHT22;31328;51.402;0.016;2024-01-07T10:38:03;4.30;99.90
24902;DHT22;31328;51.402;0.016;2024-01-07T10:40:30;4.30;99.90
24902;DHT22;31328;51.402;0.016;2024-01-07T10:42:58;4.30;99.90
24902;DHT22;31328;51.402;0.016;2024-01-07T10:45:24;4.40;99.90
24902;DHT22;31328;51.402;0.016;2024-01-07T10:47:54;4.40;99.90
24902;DHT22;31328;51.402;0.016;2024-01-07T10:50:21;4.40;99.90
24902;DHT22;31328;51.402;0.016;2024-01-07T10:52:58;4.40;99.90
24902;DHT22;31328;51.402;0.016;2024-01-07T10:55:33;4.40;99.90
24902;DHT22;31328;51.402;0.016;2024-01-07T10:58:00;4.40;99.90
24902;DHT22;31328;51.402;0.016;2024-01-07T11:00:27;4.40;99.90
24902;DHT22;31328;51.402;0.016;2024-01-07T11:03:04;4.50;99.90
24902;DHT22;31328;51.402;0.016;2024-01-07T11:05:56;4.50;99.90
24902;DHT22;31328;51.402;0.016;2024-01-07T11:08:37;4.50;99.90
24902;DHT22;31328;51.402;0.016;2024-01-07T11:11:09;4.50;99.90
24902;DHT22;31328;51.402;0.016;2024-01-07T11:13:39;4.50;99.90
24902;DHT22;31328;51.402;0.016;2024-01-07T11:16:06;4.50;99.90
24902;DHT22;31328;51.402;0.016;2024-01-07T11:21:06;4.60;99.90
24902;DHT22;31328;51.402;0.016;2024-01-07T11:23:42;4.60;99.70
24902;DHT22;31328;51.402;0.016;2024-01-07T11:26:09;4.60;99.80
24902;DHT22;31328;51.402;0.016;2024-01-07T11:31:09;4.70;99.70
24902;DHT22;31328;51.402;0.016;2024-01-07T11:33:42;4.70;99.80
24902;DHT22;31328;51.402;0.016;2024-01-07T11:36:11;4.70;99.70
24902;DHT22;31328;51.402;0.016;2024-01-07T11:38:41;4.70;99.90
24902;DHT22;31328;51.402;0.016;2024-01-07T11:41:08;4.70;99.80
24902;DHT22;31328;51.402;0.016;2024-01-07T11:43:35;4.80;99.70
24902;DHT22;31328;51.402;0.016;2024-01-07T11:46:01;4.80;99.50
24902;DHT22;31328;51.402;0.016;2024-01-07T11:48:28;4.90;99.60
24902;DHT22;31328;51.402;0.016;2024-01-07T11:50:54;4.90;99.30
24902;DHT22;31328;51.402;0.016;2024-01-07T11:53:22;5.00;99.40
24902;DHT22;31328;51.402;0.016;2024-01-07T11:55:48;5.00;99.20
24902;DHT22;31328;51.402;0.016;2024-01-07T11:58:15;5.10;99.20
24902;DHT22;31328;51.402;0.016;2024-01-07T12:00:41;5.10;98.90
24902;DHT22;31328;51.402;0.016;2024-01-07T12:03:08;5.10;99.00
24902;DHT22;31328;51.402;0.016;2024-01-07T12:05:34;5.20;99.30
24902;DHT22;31328;51.402;0.016;2024-01-07T12:08:01;5.20;99.40
24902;DHT22;31328;51.402;0.016;2024-01-07T12:10:27;5.30;99.20
24902;DHT22;31328;51.402;0.016;2024-01-07T12:12:53;5.30;99.10
24902;DHT22;31328;51.402;0.016;2024-01-07T12:15:21;5.30;98.80
24902;DHT22;31328;51.402;0.016;2024-01-07T12:17:59;5.30;98.60
24902;DHT22;31328;51.402;0.016;2024-01-07T12:20:28;5.30;98.50
24902;DHT22;31328;51.402;0.016;2024-01-07T12:23:04;5.40;98.90
24902;DHT22;31328;51.402;0.016;2024-01-07T12:25:31;5.40;99.00
24902;DHT22;31328;51.402;0.016;2024-01-07T12:27:57;5.40;98.80
24902;DHT22;31328;51.402;0.016;2024-01-07T12:30:24;5.40;98.80
24902;DHT22;31328;51.402;0.016;2024-01-07T12:32:55;5.40;99.00
24902;DHT22;31328;51.402;0.016;2024-01-07T12:35:21;5.50;98.90
24902;DHT22;31328;51.402;0.016;2024-01-07T12:37:52;5.40;98.50
24902;DHT22;31328;51.402;0.016;2024-01-07T12:40:18;5.50;98.60
24902;DHT22;31328;51.402;0.016;2024-01-07T12:42:46;5.50;98.50
24902;DHT22;31328;51.402;0.016;2024-01-07T12:45:14;5.50;98.50
24902;DHT22;31328;51.402;0.016;2024-01-07T12:47:43;5.50;98.40
24902;DHT22;31328;51.402;0.016;2024-01-07T12:50:10;5.50;98.20
24902;DHT22;31328;51.402;0.016;2024-01-07T12:52:40;5.50;98.30
24902;DHT22;31328;51.402;0.016;2024-01-07T12:55:07;5.40;98.40
24902;DHT22;31328;51.402;0.016;2024-01-07T12:57:34;5.40;98.40
24902;DHT22;31328;51.402;0.016;2024-01-07T13:00:00;5.40;98.10
24902;DHT22;31328;51.402;0.016;2024-01-07T13:02:27;5.40;98.10
24902;DHT22;31328;51.402;0.016;2024-01-07T13:04:54;5.40;97.90
24902;DHT22;31328;51.402;0.016;2024-01-07T13:07:20;5.40;98.20
24902;DHT22;31328;51.402;0.016;2024-01-07T13:09:46;5.40;98.10
24902;DHT22;31328;51.402;0.016;2024-01-07T13:12:13;5.40;98.10
24902;DHT22;31328;51.402;0.016;2024-01-07T13:14:39;5.30;98.30
24902;DHT22;31328;51.402;0.016;2024-01-07T13:17:05;5.40;98.10
24902;DHT22;31328;51.402;0.016;2024-01-07T13:19:32;5.40;97.90
24902;DHT22;31328;51.402;0.016;2024-01-07T13:21:58;5.40;97.70
24902;DHT22;31328;51.402;0.016;2024-01-07T13:24:25;5.40;97.90
24902;DHT22;31328;51.402;0.016;2024-01-07T13:26:51;5.40;97.60
24902;DHT22;31328;51.402;0.016;2024-01-07T13:29:18;5.40;97.80
24902;DHT22;31328;51.402;0.016;2024-01-07T13:31:44;5.40;98.00
24902;DHT22;31328;51.402;0.016;2024-01-07T13:34:11;5.40;97.90
24902;DHT22;31328;51.402;0.016;2024-01-07T13:36:40;5.40;98.00
24902;DHT22;31328;51.402;0.016;2024-01-07T13:39:06;5.40;98.20
24902;DHT22;31328;51.402;0.016;2024-01-07T13:41:34;5.50;97.70
24902;DHT22;31328;51.402;0.016;2024-01-07T13:44:01;5.40;97.90
24902;DHT22;31328;51.402;0.016;2024-01-07T13:46:29;5.50;98.00
24902;DHT22;31328;51.402;0.016;2024-01-07T13:48:55;5.50;97.90
24902;DHT22;31328;51.402;0.016;2024-01-07T13:51:21;5.50;97.90
24902;DHT22;31328;51.402;0.016;2024-01-07T13:53:48;5.50;97.70
24902;DHT22;31328;51.402;0.016;2024-01-07T13:56:14;5.50;97.80
24902;DHT22;31328;51.402;0.016;2024-01-07T13:58:41;5.50;97.70
24902;DHT22;31328;51.402;0.016;2024-01-07T14:01:07;5.50;97.90
24902;DHT22;31328;51.402;0.016;2024-01-07T14:03:35;5.50;97.80
24902;DHT22;31328;51.402;0.016;2024-01-07T14:06:01;5.50;97.80
24902;DHT22;31328;51.402;0.016;2024-01-07T14:08:28;5.50;97.90
24902;DHT22;31328;51.402;0.016;2024-01-07T14:10:54;5.60;97.90
24902;DHT22;31328;51.402;0.016;2024-01-07T14:13:20;5.60;97.60
24902;DHT22;31328;51.402;0.016;2024-01-07T14:15:47;5.50;97.50
24902;DHT22;31328;51.402;0.016;2024-01-07T14:18:14;5.50;97.70
24902;DHT22;31328;51.402;0.016;2024-01-07T14:20:43;5.50;97.90
24902;DHT22;31328;51.402;0.016;2024-01-07T14:23:09;5.50;97.90
24902;DHT22;31328;51.402;0.016;2024-01-07T14:25:36;5.50;98.10
24902;DHT22;31328;51.402;0.016;2024-01-07T14:28:02;5.60;97.70
24902;DHT22;31328;51.402;0.016;2024-01-07T14:30:30;5.60;97.70
24902;DHT22;31328;51.402;0.016;2024-01-07T14:32:56;5.60;97.60
24902;DHT22;31328;51.402;0.016;2024-01-07T14:35:23;5.50;97.80
24902;DHT22;31328;51.402;0.016;2024-01-07T14:37:52;5.50;97.40
24902;DHT22;31328;51.402;0.016;2024-01-07T14:40:19;5.50;97.20
24902;DHT22;31328;51.402;0.016;2024-01-07T14:42:45;5.50;97.40
24902;DHT22;31328;51.402;0.016;2024-01-07T14:45:12;5.50;97.30
24902;DHT22;31328;51.402;0.016;2024-01-07T14:47:38;5.50;97.30
24902;DHT22;31328;51.402;0.016;2024-01-07T14:50:05;5.50;97.50
24902;DHT22;31328;51.402;0.016;2024-01-07T14:52:32;5.50;97.30
24902;DHT22;31328;51.402;0.016;2024-01-07T14:54:58;5.50;97.40
24902;DHT22;31328;51.402;0.016;2024-01-07T14:57:24;5.50;97.00
24902;DHT22;31328;51.402;0.016;2024-01-07T14:59:51;5.40;96.80
24902;DHT22;31328;51.402;0.016;2024-01-07T15:02:18;5.40;96.90
24902;DHT22;31328;51.402;0.016;2024-01-07T15:04:45;5.40;97.00
24902;DHT22;31328;51.402;0.016;2024-01-07T15:07:11;5.40;97.30
24902;DHT22;31328;51.402;0.016;2024-01-07T15:09:41;5.40;97.10
24902;DHT22;31328;51.402;0.016;2024-01-07T15:12:07;5.40;97.20
24902;DHT22;31328;51.402;0.016;2024-01-07T15:14:34;5.40;96.70
24902;DHT22;31328;51.402;0.016;2024-01-07T15:17:00;5.30;96.80
24902;DHT22;31328;51.402;0.016;2024-01-07T15:19:26;5.20;96.90
24902;DHT22;31328;51.402;0.016;2024-01-07T15:21:53;5.30;97.00
24902;DHT22;31328;51.402;0.016;2024-01-07T15:24:19;5.30;96.80
24902;DHT22;31328;51.402;0.016;2024-01-07T15:26:45;5.30;97.00
24902;DHT22;31328;51.402;0.016;2024-01-07T15:29:12;5.30;97.50
24902;DHT22;31328;51.402;0.016;2024-01-07T15:31:38;5.30;97.20
24902;DHT22;31328;51.402;0.016;2024-01-07T15:34:04;5.30;97.00
24902;DHT22;31328;51.402;0.016;2024-01-07T15:36:32;5.30;96.90
24902;DHT22;31328;51.402;0.016;2024-01-07T15:38:59;5.30;97.00
24902;DHT22;31328;51.402;0.016;2024-01-07T15:41:26;5.30;97.10
24902;DHT22;31328;51.402;0.016;2024-01-07T15:43:52;5.30;97.00
24902;DHT22;31328;51.402;0.016;2024-01-07T15:46:18;5.30;97.20
24902;DHT22;31328;51.402;0.016;2024-01-07T15:48:45;5.30;97.10